sensor_id;sensor_type;location;lat;lon;timestamp;temperature;humidity
22321;DHT22;11328;53.928;18.522;2022-12-18T00:01:36;-3.80;99.90
22321;DHT22;11328;53.928;18.522;2022-12-18T00:04:07;-3.70;99.90
22321;DHT22;11328;53.928;18.522;2022-12-18T00:06:45;-3.70;99.90
22321;DHT22;11328;53.928;18.522;2022-12-18T00:09:14;-3.70;99.90
22321;DHT22;11328;53.928;18.522;2022-12-18T00:11:41;-3.70;99.90
22321;DHT22;11328;53.928;18.522;2022-12-18T00:14:10;-3.70;99.90
22321;DHT22;11328;53.928;18.522;2022-12-18T00:16:39;-3.70;99.90
22321;DHT22;11328;53.928;18.522;2022-12-18T00:19:10;-3.70;99.90
22321;DHT22;11328;53.928;18.522;2022-12-18T00:21:41;-3.70;99.90
22321;DHT22;11328;53.928;18.522;2022-12-18T00:24:09;-3.70;99.90
22321;DHT22;11328;53.928;18.522;2022-12-18T00:26:39;-3.70;99.90
22321;DHT22;11328;53.928;18.522;2022-12-18T00:29:10;-3.70;99.90
22321;DHT22;11328;53.928;18.522;2022-12-18T00:31:41;-3.70;99.90
22321;DHT22;11328;53.928;18.522;2022-12-18T00:34:12;-3.80;99.90
22321;DHT22;11328;53.928;18.522;2022-12-18T00:36:40;-3.90;99.90
22321;DHT22;11328;53.928;18.522;2022-12-18T00:39:08;-3.90;99.90
22321;DHT22;11328;53.928;18.522;2022-12-18T00:41:36;-4.00;99.90
22321;DHT22;11328;53.928;18.522;2022-12-18T00:44:22;-4.10;99.90
22321;DHT22;11328;53.928;18.522;2022-12-18T00:46:49;-4.20;99.90
22321;DHT22;11328;53.928;18.522;2022-12-18T00:49:18;-4.20;99.90
22321;DHT22;11328;53.928;18.522;2022-12-18T00:51:47;-4.20;99.90
22321;DHT22;11328;53.928;18.522;2022-12-18T00:54:15;-4.20;99.90
22321;DHT22;11328;53.928;18.522;2022-12-18T00:56:43;-4.30;99.90
22321;DHT22;11328;53.928;18.522;2022-12-18T00:59:16;-4.30;99.90
22321;DHT22;11328;53.928;18.522;2022-12-18T01:01:44;-4.30;99.90
22321;DHT22;11328;53.928;18.522;2022-12-18T01:04:13;-4.20;99.90
22321;DHT22;11328;53.928;18.522;2022-12-18T01:06:40;-4.30;99.90
22321;DHT22;11328;53.928;18.522;2022-12-18T01:09:07;-4.30;99.90
22321;DHT22;11328;53.928;18.522;2022-12-18T01:11:34;-4.40;99.90
22321;DHT22;11328;53.928;18.522;2022-12-18T01:14:01;-4.40;99.90
22321;DHT22;11328;53.928;18.522;2022-12-18T01:16:29;-4.40;99.90
22321;DHT22;11328;53.928;18.522;2022-12-18T01:18:56;-4.40;99.90
22321;DHT22;11328;53.928;18.522;2022-12-18T01:21:23;-4.50;99.90
22321;DHT22;11328;53.928;18.522;2022-12-18T01:23:55;-4.50;99.90
22321;DHT22;11328;53.928;18.522;2022-12-18T01:26:24;-4.40;99.90
22321;DHT22;11328;53.928;18.522;2022-12-18T01:28:54;-4.40;99.90
22321;DHT22;11328;53.928;18.522;2022-12-18T01:31:25;-4.40;99.90
22321;DHT22;11328;53.928;18.522;2022-12-18T01:33:55;-4.40;99.90
22321;DHT22;11328;53.928;18.522;2022-12-18T01:36:30;-4.30;99.90
22321;DHT22;11328;53.928;18.522;2022-12-18T01:39:01;-4.40;99.90
22321;DHT22;11328;53.928;18.522;2022-12-18T01:41:31;-4.30;99.90
22321;DHT22;11328;53.928;18.522;2022-12-18T01:47:44;-4.20;99.90
22321;DHT22;11328;53.928;18.522;2022-12-18T01:50:23;-4.20;99.90
22321;DHT22;11328;53.928;18.522;2022-12-18T01:53:00;-4.20;99.90
22321;DHT22;11328;53.928;18.522;2022-12-18T01:55:36;-4.20;99.90
22321;DHT22;11328;53.928;18.522;2022-12-18T01:58:08;-4.30;99.90
22321;DHT22;11328;53.928;18.522;2022-12-18T02:00:36;-4.40;99.90
22321;DHT22;11328;53.928;18.522;2022-12-18T02:03:03;-4.40;99.90
22321;DHT22;11328;53.928;18.522;2022-12-18T02:05:57;-4.40;99.90
22321;DHT22;11328;53.928;18.522;2022-12-18T02:20:13;-4.60;99.90
22321;DHT22;11328;53.928;18.522;2022-12-18T02:29:33;-4.50;99.90
22321;DHT22;11328;53.928;18.522;2022-12-18T02:31:46;-4.50;99.90
22321;DHT22;11328;53.928;18.522;2022-12-18T02:34:20;-4.50;99.90
22321;DHT22;11328;53.928;18.522;2022-12-18T02:36:51;-4.60;99.90
22321;DHT22;11328;53.928;18.522;2022-12-18T02:39:22;-4.60;99.90
22321;DHT22;11328;53.928;18.522;2022-12-18T02:41:52;-4.70;99.90
22321;DHT22;11328;53.928;18.522;2022-12-18T02:44:19;-4.70;99.90
22321;DHT22;11328;53.928;18.522;2022-12-18T02:46:49;-4.80;99.90
22321;DHT22;11328;53.928;18.522;2022-12-18T03:03:31;-5.10;99.90
22321;DHT22;11328;53.928;18.522;2022-12-18T03:09:11;-5.20;99.90
22321;DHT22;11328;53.928;18.522;2022-12-18T03:11:52;-5.20;99.90
22321;DHT22;11328;53.928;18.522;2022-12-18T03:14:42;-5.20;99.90
22321;DHT22;11328;53.928;18.522;2022-12-18T03:17:15;-5.20;99.90
22321;DHT22;11328;53.928;18.522;2022-12-18T03:19:48;-5.20;99.90
22321;DHT22;11328;53.928;18.522;2022-12-18T03:22:18;-5.20;99.90
22321;DHT22;11328;53.928;18.522;2022-12-18T03:24:48;-5.20;99.90
22321;DHT22;11328;53.928;18.522;2022-12-18T03:27:18;-5.30;99.90
22321;DHT22;11328;53.928;18.522;2022-12-18T03:30:01;-5.20;99.90
22321;DHT22;11328;53.928;18.522;2022-12-18T03:35:31;-5.30;99.90
22321;DHT22;11328;53.928;18.522;2022-12-18T03:38:01;-5.40;99.90
22321;DHT22;11328;53.928;18.522;2022-12-18T03:46:13;-5.30;99.90
22321;DHT22;11328;53.928;18.522;2022-12-18T03:48:45;-5.20;99.90
22321;DHT22;11328;53.928;18.522;2022-12-18T03:51:33;-5.20;99.90
22321;DHT22;11328;53.928;18.522;2022-12-18T03:54:08;-5.20;99.90
22321;DHT22;11328;53.928;18.522;2022-12-18T03:56:42;-5.20;99.90
22321;DHT22;11328;53.928;18.522;2022-12-18T03:59:15;-5.20;99.90
22321;DHT22;11328;53.928;18.522;2022-12-18T04:01:47;-5.20;99.90
22321;DHT22;11328;53.928;18.522;2022-12-18T04:04:18;-5.20;99.90
22321;DHT22;11328;53.928;18.522;2022-12-18T04:06:48;-5.30;99.90
22321;DHT22;11328;53.928;18.522;2022-12-18T04:09:17;-5.30;99.90
22321;DHT22;11328;53.928;18.522;2022-12-18T04:11:46;-5.30;99.90
22321;DHT22;11328;53.928;18.522;2022-12-18T04:14:14;-5.30;99.90
22321;DHT22;11328;53.928;18.522;2022-12-18T04:16:44;-5.30;99.90
22321;DHT22;11328;53.928;18.522;2022-12-18T04:19:11;-5.30;99.90
22321;DHT22;11328;53.928;18.522;2022-12-18T04:21:38;-5.30;99.90
22321;DHT22;11328;53.928;18.522;2022-12-18T04:24:05;-5.30;99.90
22321;DHT22;11328;53.928;18.522;2022-12-18T04:26:32;-5.40;99.90
22321;DHT22;11328;53.928;18.522;2022-12-18T04:28:59;-5.40;99.90
22321;DHT22;11328;53.928;18.522;2022-12-18T04:31:27;-5.40;99.90
22321;DHT22;11328;53.928;18.522;2022-12-18T04:33:54;-5.40;99.90
22321;DHT22;11328;53.928;18.522;2022-12-18T04:36:21;-5.30;99.90
22321;DHT22;11328;53.928;18.522;2022-12-18T04:38:48;-5.30;99.90
22321;DHT22;11328;53.928;18.522;2022-12-18T04:41:15;-5.30;99.90
22321;DHT22;11328;53.928;18.522;2022-12-18T04:43:42;-5.30;99.90
22321;DHT22;11328;53.928;18.522;2022-12-18T04:46:09;-5.40;99.90
22321;DHT22;11328;53.928;18.522;2022-12-18T04:48:37;-5.40;99.90
22321;DHT22;11328;53.928;18.522;2022-12-18T04:51:05;-5.40;99.90
22321;DHT22;11328;53.928;18.522;2022-12-18T04:53:33;-5.30;99.90
22321;DHT22;11328;53.928;18.522;2022-12-18T04:58:37;-5.30;99.90
22321;DHT22;11328;53.928;18.522;2022-12-18T05:01:07;-5.30;99.90
22321;DHT22;11328;53.928;18.522;2022-12-18T05:03:35;-5.30;99.90
22321;DHT22;11328;53.928;18.522;2022-12-18T05:06:04;-5.30;99.90
22321;DHT22;11328;53.928;18.522;2022-12-18T05:08:32;-5.20;99.90
22321;DHT22;11328;53.928;18.522;2022-12-18T05:11:08;-5.20;99.90
22321;DHT22;11328;53.928;18.522;2022-12-18T05:13:37;-5.20;99.90
22321;DHT22;11328;53.928;18.522;2022-12-18T05:16:06;-5.20;99.90
22321;DHT22;11328;53.928;18.522;2022-12-18T05:18:34;-5.20;99.90
22321;DHT22;11328;53.928;18.522;2022-12-18T05:21:01;-5.20;99.90
22321;DHT22;11328;53.928;18.522;2022-12-18T05:23:28;-5.20;99.90
22321;DHT22;11328;53.928;18.522;2022-12-18T05:26:01;-5.20;99.90
22321;DHT22;11328;53.928;18.522;2022-12-18T05:28:31;-5.20;99.90
22321;DHT22;11328;53.928;18.522;2022-12-18T05:31:01;-5.10;99.90
22321;DHT22;11328;53.928;18.522;2022-12-18T05:33:32;-5.10;99.90
22321;DHT22;11328;53.928;18.522;2022-12-18T05:36:02;-5.10;99.90
22321;DHT22;11328;53.928;18.522;2022-12-18T05:38:35;-5.10;99.90
22321;DHT22;11328;53.928;18.522;2022-12-18T05:41:04;-5.10;99.90
22321;DHT22;11328;53.928;18.522;2022-12-18T05:43:33;-5.10;99.90
22321;DHT22;11328;53.928;18.522;2022-12-18T05:46:06;-5.00;99.90
22321;DHT22;11328;53.928;18.522;2022-12-18T05:48:34;-5.10;99.90
22321;DHT22;11328;53.928;18.522;2022-12-18T05:51:07;-5.00;99.90
22321;DHT22;11328;53.928;18.522;2022-12-18T05:53:39;-5.10;99.90
22321;DHT22;11328;53.928;18.522;2022-12-18T05:56:08;-5.10;99.90
22321;DHT22;11328;53.928;18.522;2022-12-18T05:58:44;-5.10;99.90
22321;DHT22;11328;53.928;18.522;2022-12-18T06:01:16;-5.00;99.90
22321;DHT22;11328;53.928;18.522;2022-12-18T06:03:46;-5.10;99.90
22321;DHT22;11328;53.928;18.522;2022-12-18T06:06:32;-5.10;99.90
22321;DHT22;11328;53.928;18.522;2022-12-18T06:08:59;-5.00;99.90
22321;DHT22;11328;53.928;18.522;2022-12-18T06:11:27;-5.10;99.90
22321;DHT22;11328;53.928;18.522;2022-12-18T06:13:55;-5.10;99.90
22321;DHT22;11328;53.928;18.522;2022-12-18T06:16:25;-5.10;99.90
22321;DHT22;11328;53.928;18.522;2022-12-18T06:18:59;-5.10;99.90
22321;DHT22;11328;53.928;18.522;2022-12-18T06:21:28;-5.20;99.90
22321;DHT22;11328;53.928;18.522;2022-12-18T06:23:57;-5.10;99.90
22321;DHT22;11328;53.928;18.522;2022-12-18T06:26:25;-5.20;99.90
22321;DHT22;11328;53.928;18.522;2022-12-18T06:28:54;-5.20;99.90
22321;DHT22;11328;53.928;18.522;2022-12-18T06:31:21;-5.20;99.90
22321;DHT22;11328;53.928;18.522;2022-12-18T06:33:48;-5.30;99.90
22321;DHT22;11328;53.928;18.522;2022-12-18T06:36:15;-5.30;99.90
22321;DHT22;11328;53.928;18.522;2022-12-18T06:38:43;-5.30;99.90
22321;DHT22;11328;53.928;18.522;2022-12-18T06:41:12;-5.30;99.90
22321;DHT22;11328;53.928;18.522;2022-12-18T06:43:42;-5.40;99.90
22321;DHT22;11328;53.928;18.522;2022-12-18T06:46:10;-5.40;99.90
22321;DHT22;11328;53.928;18.522;2022-12-18T06:48:37;-5.40;99.90
22321;DHT22;11328;53.928;18.522;2022-12-18T06:51:04;-5.40;99.90
22321;DHT22;11328;53.928;18.522;2022-12-18T06:53:32;-5.40;99.90
22321;DHT22;11328;53.928;18.522;2022-12-18T06:56:01;-5.40;99.90
22321;DHT22;11328;53.928;18.522;2022-12-18T06:58:35;-5.40;99.90
22321;DHT22;11328;53.928;18.522;2022-12-18T07:01:04;-5.40;99.90
22321;DHT22;11328;53.928;18.522;2022-12-18T07:03:33;-5.40;99.90
22321;DHT22;11328;53.928;18.522;2022-12-18T07:06:00;-5.40;99.90
22321;DHT22;11328;53.928;18.522;2022-12-18T07:08:29;-5.40;99.90
22321;DHT22;11328;53.928;18.522;2022-12-18T07:10:57;-5.40;99.90
22321;DHT22;11328;53.928;18.522;2022-12-18T07:13:24;-5.40;99.90
22321;DHT22;11328;53.928;18.522;2022-12-18T07:15:51;-5.40;99.90
22321;DHT22;11328;53.928;18.522;2022-12-18T07:18:18;-5.40;99.90
22321;DHT22;11328;53.928;18.522;2022-12-18T07:20:45;-5.40;99.90
22321;DHT22;11328;53.928;18.522;2022-12-18T07:23:13;-5.40;99.90
22321;DHT22;11328;53.928;18.522;2022-12-18T07:25:40;-5.40;99.90
22321;DHT22;11328;53.928;18.522;2022-12-18T07:28:07;-5.40;99.90
22321;DHT22;11328;53.928;18.522;2022-12-18T07:30:42;-5.40;99.90
22321;DHT22;11328;53.928;18.522;2022-12-18T07:33:09;-5.40;99.90
22321;DHT22;11328;53.928;18.522;2022-12-18T07:35:36;-5.40;99.90
22321;DHT22;11328;53.928;18.522;2022-12-18T07:38:03;-5.30;99.90
22321;DHT22;11328;53.928;18.522;2022-12-18T07:40:30;-5.30;99.90
22321;DHT22;11328;53.928;18.522;2022-12-18T07:42:57;-5.30;99.90
22321;DHT22;11328;53.928;18.522;2022-12-18T07:45:24;-5.30;99.90
22321;DHT22;11328;53.928;18.522;2022-12-18T07:47:51;-5.30;99.90
22321;DHT22;11328;53.928;18.522;2022-12-18T07:50:18;-5.30;99.90
22321;DHT22;11328;53.928;18.522;2022-12-18T07:52:45;-5.30;99.90
22321;DHT22;11328;53.928;18.522;2022-12-18T07:55:13;-5.20;99.90
22321;DHT22;11328;53.928;18.522;2022-12-18T07:57:40;-5.20;99.90
22321;DHT22;11328;53.928;18.522;2022-12-18T08:00:17;-5.20;99.90
22321;DHT22;11328;53.928;18.522;2022-12-18T08:02:44;-5.20;99.90
22321;DHT22;11328;53.928;18.522;2022-12-18T08:05:11;-5.20;99.90
22321;DHT22;11328;53.928;18.522;2022-12-18T08:07:39;-5.20;99.90
22321;DHT22;11328;53.928;18.522;2022-12-18T08:10:07;-5.10;99.90
22321;DHT22;11328;53.928;18.522;2022-12-18T08:12:34;-5.00;99.90
22321;DHT22;11328;53.928;18.522;2022-12-18T08:15:01;-5.00;99.90
22321;DHT22;11328;53.928;18.522;2022-12-18T08:17:29;-4.90;99.90
22321;DHT22;11328;53.928;18.522;2022-12-18T08:19:56;-4.90;99.90
22321;DHT22;11328;53.928;18.522;2022-12-18T08:22:23;-5.00;99.90
22321;DHT22;11328;53.928;18.522;2022-12-18T08:24:50;-5.10;99.90
22321;DHT22;11328;53.928;18.522;2022-12-18T08:27:17;-5.00;99.90
22321;DHT22;11328;53.928;18.522;2022-12-18T08:29:56;-5.00;99.90
22321;DHT22;11328;53.928;18.522;2022-12-18T08:32:24;-5.00;99.90
22321;DHT22;11328;53.928;18.522;2022-12-18T08:34:53;-4.80;99.90
22321;DHT22;11328;53.928;18.522;2022-12-18T08:37:20;-4.80;99.90
22321;DHT22;11328;53.928;18.522;2022-12-18T08:39:47;-4.80;99.90
22321;DHT22;11328;53.928;18.522;2022-12-18T08:42:14;-4.80;99.90
22321;DHT22;11328;53.928;18.522;2022-12-18T08:45:02;-4.80;99.90
22321;DHT22;11328;53.928;18.522;2022-12-18T08:47:30;-4.70;99.90
22321;DHT22;11328;53.928;18.522;2022-12-18T09:01:42;-4.60;99.90
22321;DHT22;11328;53.928;18.522;2022-12-18T09:04:10;-4.30;99.90
22321;DHT22;11328;53.928;18.522;2022-12-18T09:06:37;-4.40;99.90
22321;DHT22;11328;53.928;18.522;2022-12-18T09:09:05;-4.40;99.90
22321;DHT22;11328;53.928;18.522;2022-12-18T09:11:33;-4.40;99.90
22321;DHT22;11328;53.928;18.522;2022-12-18T09:14:01;-4.40;99.90
22321;DHT22;11328;53.928;18.522;2022-12-18T09:16:29;-4.30;99.90
22321;DHT22;11328;53.928;18.522;2022-12-18T09:18:59;-4.20;99.90
22321;DHT22;11328;53.928;18.522;2022-12-18T09:21:31;-4.20;99.90
22321;DHT22;11328;53.928;18.522;2022-12-18T09:24:03;-4.10;99.90
22321;DHT22;11328;53.928;18.522;2022-12-18T09:26:34;-4.10;99.90
22321;DHT22;11328;53.928;18.522;2022-12-18T09:29:02;-4.00;99.90
22321;DHT22;11328;53.928;18.522;2022-12-18T09:31:30;-3.90;99.90
22321;DHT22;11328;53.928;18.522;2022-12-18T09:33:57;-3.90;99.90
22321;DHT22;11328;53.928;18.522;2022-12-18T09:36:24;-3.90;99.90
22321;DHT22;11328;53.928;18.522;2022-12-18T09:38:51;-3.80;99.90
22321;DHT22;11328;53.928;18.522;2022-12-18T09:44:25;-3.70;99.90
22321;DHT22;11328;53.928;18.522;2022-12-18T09:47:07;-3.60;99.90
22321;DHT22;11328;53.928;18.522;2022-12-18T09:49:48;-3.50;99.90
22321;DHT22;11328;53.928;18.522;2022-12-18T09:52:35;-3.50;99.90
22321;DHT22;11328;53.928;18.522;2022-12-18T09:55:31;-3.40;99.90
22321;DHT22;11328;53.928;18.522;2022-12-18T10:00:58;-3.10;99.90
22321;DHT22;11328;53.928;18.522;2022-12-18T10:03:25;-3.10;99.90
22321;DHT22;11328;53.928;18.522;2022-12-18T10:06:16;-2.90;99.90
22321;DHT22;11328;53.928;18.522;2022-12-18T10:12:38;-2.80;99.90
22321;DHT22;11328;53.928;18.522;2022-12-18T10:15:07;-2.70;99.90
22321;DHT22;11328;53.928;18.522;2022-12-18T10:17:53;-2.80;99.90
22321;DHT22;11328;53.928;18.522;2022-12-18T10:20:51;-2.70;99.90
22321;DHT22;11328;53.928;18.522;2022-12-18T10:26:24;-2.60;99.90
22321;DHT22;11328;53.928;18.522;2022-12-18T10:28:53;-2.60;99.90
22321;DHT22;11328;53.928;18.522;2022-12-18T10:31:31;-2.50;99.90
22321;DHT22;11328;53.928;18.522;2022-12-18T10:33:58;-2.50;99.90
22321;DHT22;11328;53.928;18.522;2022-12-18T10:36:26;-2.40;99.90
22321;DHT22;11328;53.928;18.522;2022-12-18T10:38:53;-2.40;99.90
22321;DHT22;11328;53.928;18.522;2022-12-18T10:46:39;-2.40;99.90
22321;DHT22;11328;53.928;18.522;2022-12-18T10:49:20;-2.30;99.90
22321;DHT22;11328;53.928;18.522;2022-12-18T10:52:19;-2.30;99.90
22321;DHT22;11328;53.928;18.522;2022-12-18T10:55:02;-2.30;99.90
22321;DHT22;11328;53.928;18.522;2022-12-18T10:57:37;-2.30;99.90
22321;DHT22;11328;53.928;18.522;2022-12-18T11:02:57;-2.20;99.90
22321;DHT22;11328;53.928;18.522;2022-12-18T11:05:30;-2.10;99.90
22321;DHT22;11328;53.928;18.522;2022-12-18T11:08:03;-2.00;99.90
22321;DHT22;11328;53.928;18.522;2022-12-18T11:10:32;-2.00;99.90
22321;DHT22;11328;53.928;18.522;2022-12-18T11:13:22;-2.00;99.90
22321;DHT22;11328;53.928;18.522;2022-12-18T11:15:51;-1.90;99.90
22321;DHT22;11328;53.928;18.522;2022-12-18T11:18:24;-1.90;99.90
22321;DHT22;11328;53.928;18.522;2022-12-18T11:21:08;-1.80;99.90
22321;DHT22;11328;53.928;18.522;2022-12-18T11:23:50;-1.90;99.90
22321;DHT22;11328;53.928;18.522;2022-12-18T11:26:19;-1.80;99.90
22321;DHT22;11328;53.928;18.522;2022-12-18T11:29:08;-1.70;99.90
22321;DHT22;11328;53.928;18.522;2022-12-18T11:31:36;-1.70;99.90
22321;DHT22;11328;53.928;18.522;2022-12-18T11:34:26;-1.60;99.90
22321;DHT22;11328;53.928;18.522;2022-12-18T11:36:58;-1.50;99.90
22321;DHT22;11328;53.928;18.522;2022-12-18T11:39:38;-1.50;99.90
22321;DHT22;11328;53.928;18.522;2022-12-18T11:42:12;-1.50;99.90
22321;DHT22;11328;53.928;18.522;2022-12-18T11:45:20;-1.40;99.90
22321;DHT22;11328;53.928;18.522;2022-12-18T11:48:21;-1.40;99.90
22321;DHT22;11328;53.928;18.522;2022-12-18T11:50:56;-1.50;99.90
22321;DHT22;11328;53.928;18.522;2022-12-18T11:53:26;-1.50;99.90
22321;DHT22;11328;53.928;18.522;2022-12-18T11:59:08;-1.40;99.90
22321;DHT22;11328;53.928;18.522;2022-12-18T12:01:48;-1.30;99.90
22321;DHT22;11328;53.928;18.522;2022-12-18T12:10:35;-1.20;99.90
22321;DHT22;11328;53.928;18.522;2022-12-18T12:16:15;-1.40;99.90
22321;DHT22;11328;53.928;18.522;2022-12-18T12:21:35;-1.30;99.90
22321;DHT22;11328;53.928;18.522;2022-12-18T12:24:39;-1.20;99.90
22321;DHT22;11328;53.928;18.522;2022-12-18T12:27:24;-1.20;99.90
22321;DHT22;11328;53.928;18.522;2022-12-18T12:30:16;-1.20;99.90
22321;DHT22;11328;53.928;18.522;2022-12-18T12:38:40;-1.10;99.90
22321;DHT22;11328;53.928;18.522;2022-12-18T12:41:21;-1.10;99.90
22321;DHT22;11328;53.928;18.522;2022-12-18T12:44:17;-1.10;99.90
22321;DHT22;11328;53.928;18.522;2022-12-18T12:46:50;-1.10;99.90
22321;DHT22;11328;53.928;18.522;2022-12-18T12:49:22;-1.10;99.90
22321;DHT22;11328;53.928;18.522;2022-12-18T12:52:15;-1.10;99.90
22321;DHT22;11328;53.928;18.522;2022-12-18T12:54:51;-1.10;99.90
22321;DHT22;11328;53.928;18.522;2022-12-18T12:57:34;-1.10;99.90
22321;DHT22;11328;53.928;18.522;2022-12-18T13:00:15;-1.30;99.90
22321;DHT22;11328;53.928;18.522;2022-12-18T13:06:13;-1.20;99.90
22321;DHT22;11328;53.928;18.522;2022-12-18T13:09:04;-1.20;99.90
22321;DHT22;11328;53.928;18.522;2022-12-18T13:14:37;-1.10;99.90
22321;DHT22;11328;53.928;18.522;2022-12-18T13:19:49;-1.20;99.90
22321;DHT22;11328;53.928;18.522;2022-12-18T13:22:35;-1.30;99.90
22321;DHT22;11328;53.928;18.522;2022-12-18T13:27:59;-1.20;99.90
22321;DHT22;11328;53.928;18.522;2022-12-18T13:38:35;-1.20;99.90
22321;DHT22;11328;53.928;18.522;2022-12-18T13:41:23;-1.20;99.90
22321;DHT22;11328;53.928;18.522;2022-12-18T13:43:55;-1.20;99.90
22321;DHT22;11328;53.928;18.522;2022-12-18T13:46:48;-1.30;99.90
22321;DHT22;11328;53.928;18.522;2022-12-18T13:49:20;-1.30;99.90
22321;DHT22;11328;53.928;18.522;2022-12-18T13:51:55;-1.40;99.90
22321;DHT22;11328;53.928;18.522;2022-12-18T13:54:41;-1.40;99.90
22321;DHT22;11328;53.928;18.522;2022-12-18T13:57:30;-1.40;99.90
22321;DHT22;11328;53.928;18.522;2022-12-18T14:02:45;-1.50;99.90
22321;DHT22;11328;53.928;18.522;2022-12-18T14:05:34;-1.60;99.90
22321;DHT22;11328;53.928;18.522;2022-12-18T14:08:08;-1.60;99.90
22321;DHT22;11328;53.928;18.522;2022-12-18T14:10:44;-1.70;99.90
22321;DHT22;11328;53.928;18.522;2022-12-18T14:13:24;-1.70;99.90
22321;DHT22;11328;53.928;18.522;2022-12-18T14:15:57;-1.80;99.90
22321;DHT22;11328;53.928;18.522;2022-12-18T14:18:53;-1.90;99.90
22321;DHT22;11328;53.928;18.522;2022-12-18T14:21:33;-2.00;99.90
22321;DHT22;11328;53.928;18.522;2022-12-18T14:24:17;-2.00;99.90
22321;DHT22;11328;53.928;18.522;2022-12-18T14:26:47;-2.00;99.90
22321;DHT22;11328;53.928;18.522;2022-12-18T14:29:30;-2.00;99.90
22321;DHT22;11328;53.928;18.522;2022-12-18T14:32:23;-2.00;99.90
22321;DHT22;11328;53.928;18.522;2022-12-18T14:34:51;-2.00;99.90
22321;DHT22;11328;53.928;18.522;2022-12-18T14:37:26;-2.10;99.90
22321;DHT22;11328;53.928;18.522;2022-12-18T14:52:57;-2.20;99.90
22321;DHT22;11328;53.928;18.522;2022-12-18T14:55:25;-1.50;99.90
22321;DHT22;11328;53.928;18.522;2022-12-18T14:57:54;-1.80;99.90
22321;DHT22;11328;53.928;18.522;2022-12-18T15:00:24;-1.90;99.90
22321;DHT22;11328;53.928;18.522;2022-12-18T15:02:54;-2.10;99.90
22321;DHT22;11328;53.928;18.522;2022-12-18T15:05:28;-2.20;99.90
22321;DHT22;11328;53.928;18.522;2022-12-18T15:07:59;-2.30;99.90
22321;DHT22;11328;53.928;18.522;2022-12-18T15:10:32;-2.30;99.90
22321;DHT22;11328;53.928;18.522;2022-12-18T15:20:49;-2.60;99.90
22321;DHT22;11328;53.928;18.522;2022-12-18T15:26:06;-2.70;99.90
22321;DHT22;11328;53.928;18.522;2022-12-18T15:28:55;-2.80;99.90
22321;DHT22;11328;53.928;18.522;2022-12-18T15:31:32;-2.90;99.90
22321;DHT22;11328;53.928;18.522;2022-12-18T15:34:22;-2.90;99.90
22321;DHT22;11328;53.928;18.522;2022-12-18T15:36:50;-3.10;99.90
22321;DHT22;11328;53.928;18.522;2022-12-18T15:39:18;-3.00;99.90
22321;DHT22;11328;53.928;18.522;2022-12-18T15:41:45;-3.00;99.90
22321;DHT22;11328;53.928;18.522;2022-12-18T15:44:31;-3.00;99.90
22321;DHT22;11328;53.928;18.522;2022-12-18T15:46:58;-3.10;99.90
22321;DHT22;11328;53.928;18.522;2022-12-18T15:49:25;-3.20;99.90
22321;DHT22;11328;53.928;18.522;2022-12-18T15:51:54;-3.40;99.90
22321;DHT22;11328;53.928;18.522;2022-12-18T15:54:28;-3.40;99.90
22321;DHT22;11328;53.928;18.522;2022-12-18T15:57:14;-3.50;99.90
22321;DHT22;11328;53.928;18.522;2022-12-18T15:59:55;-3.50;99.90
22321;DHT22;11328;53.928;18.522;2022-12-18T16:02:25;-3.70;99.90
22321;DHT22;11328;53.928;18.522;2022-12-18T16:04:54;-3.70;99.90
22321;DHT22;11328;53.928;18.522;2022-12-18T16:07:22;-3.70;99.90
22321;DHT22;11328;53.928;18.522;2022-12-18T16:09:51;-3.80;99.90
22321;DHT22;11328;53.928;18.522;2022-12-18T16:12:22;-4.00;99.90
22321;DHT22;11328;53.928;18.522;2022-12-18T16:14:52;-4.10;99.90
22321;DHT22;11328;53.928;18.522;2022-12-18T16:17:19;-4.10;99.90
22321;DHT22;11328;53.928;18.522;2022-12-18T16:19:46;-4.10;99.90
22321;DHT22;11328;53.928;18.522;2022-12-18T16:22:33;-4.20;99.90
22321;DHT22;11328;53.928;18.522;2022-12-18T16:25:00;-4.30;99.90
22321;DHT22;11328;53.928;18.522;2022-12-18T16:27:27;-4.30;99.90
22321;DHT22;11328;53.928;18.522;2022-12-18T16:29:54;-4.40;99.90
22321;DHT22;11328;53.928;18.522;2022-12-18T16:32:21;-4.40;99.90
22321;DHT22;11328;53.928;18.522;2022-12-18T16:34:50;-4.30;99.90
22321;DHT22;11328;53.928;18.522;2022-12-18T16:37:17;-4.40;99.90
22321;DHT22;11328;53.928;18.522;2022-12-18T16:39:44;-4.40;99.90
22321;DHT22;11328;53.928;18.522;2022-12-18T16:42:17;-4.50;99.90
22321;DHT22;11328;53.928;18.522;2022-12-18T16:44:47;-4.60;99.90
22321;DHT22;11328;53.928;18.522;2022-12-18T16:47:16;-4.70;99.90
22321;DHT22;11328;53.928;18.522;2022-12-18T16:49:43;-4.60;99.90
22321;DHT22;11328;53.928;18.522;2022-12-18T16:52:12;-4.70;99.90
22321;DHT22;11328;53.928;18.522;2022-12-18T16:54:39;-4.60;99.90
22321;DHT22;11328;53.928;18.522;2022-12-18T16:57:08;-4.60;99.90
22321;DHT22;11328;53.928;18.522;2022-12-18T16:59:37;-4.70;99.90
22321;DHT22;11328;53.928;18.522;2022-12-18T17:02:04;-4.70;99.90
22321;DHT22;11328;53.928;18.522;2022-12-18T17:04:31;-4.80;99.90
22321;DHT22;11328;53.928;18.522;2022-12-18T17:06:59;-4.90;99.90
22321;DHT22;11328;53.928;18.522;2022-12-18T17:09:26;-4.90;99.90
22321;DHT22;11328;53.928;18.522;2022-12-18T17:11:54;-4.90;99.90
22321;DHT22;11328;53.928;18.522;2022-12-18T17:14:23;-4.90;99.90
22321;DHT22;11328;53.928;18.522;2022-12-18T17:16:51;-4.90;99.90
22321;DHT22;11328;53.928;18.522;2022-12-18T17:19:39;-4.90;99.90
22321;DHT22;11328;53.928;18.522;2022-12-18T17:22:07;-5.00;99.90
22321;DHT22;11328;53.928;18.522;2022-12-18T17:24:35;-4.90;99.90
22321;DHT22;11328;53.928;18.522;2022-12-18T17:27:03;-4.90;99.90
22321;DHT22;11328;53.928;18.522;2022-12-18T17:29:30;-4.80;99.90
22321;DHT22;11328;53.928;18.522;2022-12-18T17:31:57;-4.80;99.90
22321;DHT22;11328;53.928;18.522;2022-12-18T17:34:26;-4.70;99.90
22321;DHT22;11328;53.928;18.522;2022-12-18T17:36:54;-4.60;99.90
22321;DHT22;11328;53.928;18.522;2022-12-18T17:39:21;-4.60;99.90
22321;DHT22;11328;53.928;18.522;2022-12-18T17:41:48;-4.70;99.90
22321;DHT22;11328;53.928;18.522;2022-12-18T17:44:16;-4.60;99.90
22321;DHT22;11328;53.928;18.522;2022-12-18T17:46:44;-4.70;99.90
22321;DHT22;11328;53.928;18.522;2022-12-18T17:49:12;-4.70;99.90
22321;DHT22;11328;53.928;18.522;2022-12-18T17:51:41;-4.70;99.90
22321;DHT22;11328;53.928;18.522;2022-12-18T17:54:09;-4.80;99.90
22321;DHT22;11328;53.928;18.522;2022-12-18T17:56:38;-4.80;99.90
22321;DHT22;11328;53.928;18.522;2022-12-18T17:59:06;-4.80;99.90
22321;DHT22;11328;53.928;18.522;2022-12-18T18:01:34;-4.90;99.90
22321;DHT22;11328;53.928;18.522;2022-12-18T18:04:12;-4.90;99.90
22321;DHT22;11328;53.928;18.522;2022-12-18T18:06:40;-4.90;99.90
22321;DHT22;11328;53.928;18.522;2022-12-18T18:09:08;-5.00;99.90
22321;DHT22;11328;53.928;18.522;2022-12-18T18:11:43;-5.00;99.90
22321;DHT22;11328;53.928;18.522;2022-12-18T18:14:30;-4.90;99.90
22321;DHT22;11328;53.928;18.522;2022-12-18T18:16:58;-4.90;99.90